Time;durP1;ratioP1;P1;durP2;ratioP2;P2;SDS_P1;SDS_P2;PMS_P1;PMS_P2;Temp;Humidity;BMP_temperature;BMP_pressure;BME280_temperature;BME280_humidity;BME280_pressure;Samples;Min_cycle;Max_cycle;Signal;HPM_P1;HPM_P2
2023/12/18 05:32:40;;;;;;;;;14.75;11.50;;;;;12.46;47.56;103124.41;5045677;28;45485;-78
2023/12/18 05:35:07;;;;;;;;;24.50;15.75;;;;;12.35;47.91;103139.81;5055983;28;45309;-77
2023/12/18 05:37:32;;;;;;;;;18.75;16.75;;;;;12.24;48.02;103131.06;5056116;28;46329;-76
2023/12/18 05:39:57;;;;;;;;;16.50;14.50;;;;;12.30;47.89;103159.66;5056614;28;45347;-76
2023/12/18 05:42:23;;;;;;;;;17.50;14.00;;;;;11.97;48.69;103150.25;5057311;28;45420;-77
2023/12/18 05:44:48;;;;;;;;;18.00;17.00;;;;;12.16;48.03;103157.16;5056776;28;46210;-77
2023/12/18 05:47:13;;;;;;;;;16.25;16.25;;;;;12.21;48.00;103131.09;5054705;28;45635;-76
2023/12/18 05:49:38;;;;;;;;;14.00;14.00;;;;;12.27;47.21;103106.78;5050955;28;45474;-77
2023/12/18 05:52:04;;;;;;;;;16.75;14.25;;;;;12.44;47.22;103142.38;5034639;28;46787;-78
2023/12/18 05:54:30;;;;;;;;;17.25;12.00;;;;;12.39;46.98;103146.94;5054205;28;45504;-76
2023/12/18 05:56:56;;;;;;;;;17.25;15.50;;;;;12.31;47.37;103140.81;5046808;28;46224;-78
2023/12/18 05:59:21;;;;;;;;;29.75;17.50;;;;;12.20;47.65;103137.38;5058485;28;45345;-75
2023/12/18 06:01:46;;;;;;;;;16.75;15.00;;;;;12.16;47.77;103132.97;5054533;28;45501;-77
2023/12/18 06:04:12;;;;;;;;;15.50;13.25;;;;;12.18;47.68;103146.38;5053641;28;45779;-77
2023/12/18 06:06:37;;;;;;;;;13.50;10.25;;;;;12.31;47.18;103146.19;5055350;28;46776;-77
2023/12/18 06:09:04;;;;;;;;;14.25;14.25;;;;;12.38;46.71;103141.59;5055529;28;45791;-76
2023/12/18 06:11:29;;;;;;;;;17.50;14.00;;;;;12.35;46.96;103147.91;5063239;28;45707;-76
2023/12/18 06:13:54;;;;;;;;;13.25;13.00;;;;;12.35;46.96;103142.50;5053872;28;45523;-77
2023/12/18 06:16:20;;;;;;;;;17.25;15.25;;;;;12.56;46.83;103140.41;5055371;28;45291;-77
2023/12/18 06:18:45;;;;;;;;;14.25;14.25;;;;;12.58;46.51;103127.84;5036450;28;45268;-77
2023/12/18 06:21:10;;;;;;;;;16.75;12.50;;;;;12.78;46.21;103134.66;5053593;28;46015;-76
2023/12/18 06:23:36;;;;;;;;;22.50;17.25;;;;;12.58;46.16;103127.84;5054941;28;45516;-77
2023/12/18 06:26:03;;;;;;;;;20.75;18.00;;;;;12.71;46.55;103143.75;5055230;28;46132;-77
2023/12/18 06:28:29;;;;;;;;;17.00;14.25;;;;;12.60;46.90;103148.41;5055077;28;45307;-77
2023/12/18 06:30:54;;;;;;;;;14.50;13.75;;;;;12.62;46.84;103143.88;5055025;28;45272;-77
2023/12/18 06:33:19;;;;;;;;;18.25;16.75;;;;;12.67;47.00;103141.16;5054769;28;45466;-76
2023/12/18 06:35:45;;;;;;;;;14.00;14.00;;;;;12.63;46.72;103139.41;5062956;28;46121;-77
2023/12/18 06:38:10;;;;;;;;;22.75;16.50;;;;;12.57;46.51;103148.47;5053102;28;45584;-75
2023/12/18 06:40:35;;;;;;;;;14.00;13.75;;;;;12.48;47.21;103164.75;5054891;28;47652;-77
2023/12/18 06:43:01;;;;;;;;;16.00;13.75;;;;;12.21;47.79;103163.34;5053671;28;60883;-78
2023/12/18 06:45:26;;;;;;;;;14.50;13.75;;;;;12.18;47.56;103171.47;5054744;28;56974;-76
2023/12/18 06:47:51;;;;;;;;;14.25;14.25;;;;;12.22;47.66;103165.13;5052807;28;56451;-78
2023/12/18 06:50:16;;;;;;;;;12.25;12.25;;;;;12.28;47.18;103164.16;5052778;28;48729;-74
2023/12/18 06:52:43;;;;;;;;;15.00;12.75;;;;;12.27;47.04;103165.06;5053183;28;45596;-78
2023/12/18 06:55:09;;;;;;;;;13.00;13.00;;;;;12.29;47.41;103160.56;5054451;28;46440;-77
2023/12/18 06:57:34;;;;;;;;;13.75;13.75;;;;;11.93;48.30;103168.22;5056917;28;45505;-78
2023/12/18 07:00:00;;;;;;;;;15.25;12.00;;;;;12.10;47.92;103165.28;5048441;28;45379;-75
2023/12/18 07:02:26;;;;;;;;;20.75;17.00;;;;;12.10;47.29;103159.91;5034575;28;45544;-76
2023/12/18 07:04:52;;;;;;;;;14.00;12.50;;;;;12.17;47.32;103172.34;5053416;28;46173;-77
2023/12/18 07:07:18;;;;;;;;;20.00;17.00;;;;;11.88;47.51;103164.69;5054091;28;45400;-76
2023/12/18 07:09:44;;;;;;;;;11.00;11.00;;;;;11.88;47.60;103171.88;5037353;28;45475;-77
2023/12/18 07:12:10;;;;;;;;;15.75;15.75;;;;;11.79;47.41;103180.06;5057289;28;45476;-75
2023/12/18 07:14:38;;;;;;;;;16.50;13.25;;;;;11.59;47.54;103138.13;5054555;28;46398;-81
2023/12/18 07:17:03;;;;;;;;;13.50;12.50;;;;;11.73;47.55;103183.69;5056889;28;45509;-78
2023/12/18 07:19:29;;;;;;;;;16.00;13.75;;;;;11.55;48.03;103181.19;5054622;28;45375;-75
2023/12/18 07:21:54;;;;;;;;;14.50;12.00;;;;;11.59;47.47;103183.81;5059081;28;49551;-76
2023/12/18 07:24:19;;;;;;;;;17.75;13.75;;;;;11.55;47.89;103179.41;5054641;28;51891;-78
2023/12/18 07:26:44;;;;;;;;;15.00;11.25;;;;;11.48;47.80;103164.25;5048987;28;45317;-77
2023/12/18 07:29:10;;;;;;;;;17.25;13.75;;;;;11.64;47.41;103175.72;5054036;28;45288;-76
2023/12/18 07:31:35;;;;;;;;;16.75;15.50;;;;;11.61;47.59;103198.13;5051282;28;46724;-76
2023/12/18 07:34:01;;;;;;;;;14.25;14.25;;;;;11.69;47.04;103201.63;5056337;28;54135;-78
2023/12/18 07:36:26;;;;;;;;;13.50;13.50;;;;;11.80;47.18;103190.78;5060021;28;45533;-76
2023/12/18 07:38:51;;;;;;;;;20.50;15.75;;;;;11.98;46.51;103192.38;5061812;28;45529;-76
2023/12/18 07:41:18;;;;;;;;;16.50;14.00;;;;;11.90;46.86;103202.31;5060992;28;45419;-76
2023/12/18 07:43:43;;;;;;;;;13.25;13.25;;;;;11.93;46.88;103203.16;5054350;28;45685;-76
2023/12/18 07:46:19;;;;;;;;;24.50;18.25;;;;;12.04;47.12;103205.72;5053253;28;45344;-76
2023/12/18 07:48:48;;;;;;;;;14.00;10.50;;;;;11.76;47.59;103202.47;5053813;28;45414;-76
2023/12/18 07:51:13;;;;;;;;;14.75;14.00;;;;;11.86;47.21;103204.16;5053834;28;45470;-76
2023/12/18 07:53:39;;;;;;;;;16.75;14.00;;;;;11.94;47.36;103206.75;5036344;28;45644;-77
2023/12/18 07:56:04;;;;;;;;;14.00;13.75;;;;;12.04;47.22;103201.22;5053768;28;45507;-76
2023/12/18 07:58:30;;;;;;;;;12.00;12.00;;;;;11.85;46.98;103196.09;5054183;28;45415;-76
2023/12/18 08:00:55;;;;;;;;;16.75;14.00;;;;;11.93;47.08;103195.09;5053192;28;60901;-76
2023/12/18 08:03:20;;;;;;;;;17.50;13.00;;;;;11.92;47.18;103204.06;5054218;28;45308;-77
2023/12/18 08:05:46;;;;;;;;;24.00;19.00;;;;;11.72;47.16;103179.22;5052684;28;45481;-79
2023/12/18 08:08:11;;;;;;;;;18.00;18.00;;;;;11.91;47.36;103210.34;5054014;28;45422;-76
2023/12/18 08:10:37;;;;;;;;;17.00;16.50;;;;;12.00;47.12;103202.16;5061272;28;45253;-78
2023/12/18 08:13:03;;;;;;;;;21.75;15.50;;;;;12.06;47.08;103215.56;5054497;28;45559;-77
2023/12/18 08:15:29;;;;;;;;;21.00;17.75;;;;;11.95;46.95;103206.72;5057115;28;45391;-76
2023/12/18 08:17:54;;;;;;;;;18.00;16.25;;;;;11.78;47.17;103202.47;5057419;28;45363;-77
2023/12/18 08:20:19;;;;;;;;;20.25;17.00;;;;;11.54;47.50;103155.22;5056681;28;46479;-77
2023/12/18 08:22:45;;;;;;;;;15.75;11.75;;;;;11.71;47.27;103186.38;5057676;28;45871;-77
2023/12/18 08:25:10;;;;;;;;;12.75;12.75;;;;;12.03;46.65;103204.81;5037209;28;45304;-77
2023/12/18 08:27:36;;;;;;;;;23.25;16.00;;;;;12.03;46.76;103187.81;5037976;28;45194;-77
2023/12/18 08:30:06;;;;;;;;;18.75;14.00;;;;;11.91;46.59;103190.66;5037906;28;45515;-75
2023/12/18 08:32:32;;;;;;;;;17.00;13.50;;;;;11.89;46.37;103201.44;5028960;28;47392;-77
2023/12/18 08:35:00;;;;;;;;;19.00;16.25;;;;;11.70;47.13;103199.81;5033753;28;45391;-76
2023/12/18 08:37:26;;;;;;;;;16.75;14.00;;;;;11.71;47.10;103197.13;5036687;28;45521;-78
2023/12/18 08:39:51;;;;;;;;;14.00;13.50;;;;;11.70;46.80;103175.63;5035967;28;45433;-78
2023/12/18 08:42:16;;;;;;;;;20.50;19.25;;;;;11.87;46.41;103192.50;5036752;28;45958;-77
2023/12/18 08:44:42;;;;;;;;;24.50;17.00;;;;;11.87;46.67;103194.28;5036377;28;48615;-79
2023/12/18 08:47:07;;;;;;;;;12.25;12.25;;;;;11.79;46.39;103190.81;5036912;28;45380;-76
2023/12/18 08:49:32;;;;;;;;;17.00;14.00;;;;;11.60;46.92;103180.22;5035809;28;46002;-77
2023/12/18 08:51:59;;;;;;;;;18.25;16.75;;;;;11.88;46.41;103193.38;5018666;28;46427;-76
2023/12/18 08:54:24;;;;;;;;;12.25;12.25;;;;;11.90;46.34;103189.78;5023460;28;45555;-77
2023/12/18 08:56:51;;;;;;;;;23.00;13.75;;;;;11.97;46.02;103190.56;5036978;28;45446;-76
2023/12/18 08:59:17;;;;;;;;;23.25;17.00;;;;;11.89;45.70;103187.09;5018289;28;46324;-76
2023/12/18 09:01:43;;;;;;;;;14.00;12.00;;;;;11.91;45.95;103187.97;5036833;28;45968;-77
2023/12/18 09:04:09;;;;;;;;;16.00;13.75;;;;;11.62;46.48;103185.59;5035121;28;45405;-76
2023/12/18 09:06:37;;;;;;;;;21.00;18.00;;;;;11.56;46.56;103169.53;5036264;28;46037;-77
2023/12/18 09:09:03;;;;;;;;;19.25;17.50;;;;;11.61;46.78;103165.88;5034506;28;45585;-76
2023/12/18 09:11:30;;;;;;;;;18.25;15.50;;;;;11.81;46.04;103178.25;5021026;28;46329;-77
2023/12/18 09:13:56;;;;;;;;;16.75;15.75;;;;;11.54;46.14;103149.88;5033689;28;45499;-76
2023/12/18 09:16:21;;;;;;;;;18.75;15.50;;;;;11.70;45.84;103181.91;5039329;28;45431;-78
2023/12/18 09:18:47;;;;;;;;;16.75;14.25;;;;;11.69;46.01;103166.69;5044125;28;45383;-76
2023/12/18 09:21:12;;;;;;;;;15.00;14.00;;;;;11.94;45.57;103185.22;5044877;28;45550;-79
2023/12/18 09:23:38;;;;;;;;;15.25;15.25;;;;;12.01;45.19;103177.06;5040958;28;45360;-78
2023/12/18 09:26:03;;;;;;;;;16.00;16.00;;;;;11.78;44.96;103168.41;5026662;28;45319;-76
2023/12/18 09:28:28;;;;;;;;;16.75;14.25;;;;;11.75;45.34;103179.19;5048342;28;45407;-73
2023/12/18 09:30:54;;;;;;;;;17.00;16.25;;;;;11.65;45.29;103175.69;5017472;28;55438;-75
2023/12/18 09:33:19;;;;;;;;;17.25;15.00;;;;;11.64;45.10;103191.84;5037526;28;45657;-78
2023/12/18 09:35:44;;;;;;;;;17.75;16.50;;;;;11.43;45.76;103174.16;5038253;28;45324;-77
2023/12/18 09:38:10;;;;;;;;;16.75;16.50;;;;;11.33;45.56;103184.09;5042395;28;45351;-78
2023/12/18 09:40:35;;;;;;;;;16.00;13.25;;;;;11.25;45.47;103188.66;5036812;28;45453;-76
2023/12/18 09:43:02;;;;;;;;;12.50;12.50;;;;;11.37;45.99;103185.84;5039659;28;45664;-78
2023/12/18 09:45:29;;;;;;;;;16.00;13.00;;;;;11.33;45.90;103181.41;5038134;28;45464;-77
2023/12/18 09:47:56;;;;;;;;;16.00;13.50;;;;;11.45;45.93;103183.09;5033449;28;45557;-77
2023/12/18 09:50:21;;;;;;;;;17.75;14.25;;;;;11.22;45.88;103177.97;5034690;28;45518;-78
2023/12/18 09:53:08;;;;;;;;;16.75;16.75;;;;;11.28;45.90;103187.75;5032837;28;45466;-75
2023/12/18 09:55:34;;;;;;;;;17.00;16.00;;;;;11.24;45.82;103183.28;5035227;28;45546;-77
2023/12/18 09:58:00;;;;;;;;;14.50;13.50;;;;;11.30;45.60;103202.94;5035310;28;45482;-77
2023/12/18 10:00:27;;;;;;;;;12.50;10.00;;;;;11.02;46.53;103204.09;5017736;28;47338;-77
2023/12/18 10:02:55;;;;;;;;;17.25;17.25;;;;;11.12;46.41;103202.22;5019224;28;45651;-76
2023/12/18 10:05:20;;;;;;;;;23.50;18.00;;;;;11.25;46.03;103201.19;5034584;28;45310;-78
2023/12/18 10:07:46;;;;;;;;;23.00;20.75;;;;;11.30;46.09;103194.00;5044412;28;49314;-75
2023/12/18 10:10:11;;;;;;;;;17.50;14.75;;;;;11.22;46.27;103175.28;5024470;28;47203;-78
2023/12/18 10:12:38;;;;;;;;;13.25;10.50;;;;;11.10;46.61;103193.28;5036846;28;45381;-78
2023/12/18 10:15:09;;;;;;;;;17.50;16.00;;;;;11.07;46.54;103195.97;5034051;28;45541;-77
2023/12/18 10:17:34;;;;;;;;;21.00;14.00;;;;;11.13;46.68;103188.78;5034108;28;45450;-78
2023/12/18 10:20:04;;;;;;;;;18.75;16.50;;;;;11.22;46.18;103177.97;5033348;28;45752;-79
2023/12/18 10:22:29;;;;;;;;;23.50;18.75;;;;;11.50;46.20;103183.91;5018984;28;45528;-78
2023/12/18 10:24:58;;;;;;;;;20.25;20.25;;;;;11.33;46.54;103183.19;5027385;28;45455;-78
2023/12/18 10:27:23;;;;;;;;;24.00;20.00;;;;;11.31;46.56;103180.53;5041206;28;45378;-77
2023/12/18 10:29:48;;;;;;;;;18.00;16.50;;;;;11.48;46.50;103180.38;5042392;28;57200;-78
2023/12/18 10:32:14;;;;;;;;;23.00;17.00;;;;;11.58;45.99;103171.28;5038876;28;50781;-75
2023/12/18 10:34:39;;;;;;;;;21.00;17.00;;;;;11.68;45.72;103169.38;5037252;28;45361;-78
2023/12/18 10:37:05;;;;;;;;;21.75;18.00;;;;;11.58;45.94;103165.91;5017318;28;45374;-77
2023/12/18 10:39:35;;;;;;;;;17.75;17.25;;;;;11.82;45.60;103170.16;5034928;28;46030;-78
2023/12/18 10:42:05;;;;;;;;;21.50;20.00;;;;;11.67;45.77;103164.91;5034707;28;45913;-78
2023/12/18 10:44:33;;;;;;;;;16.25;16.25;;;;;11.92;45.62;103174.50;5033889;28;45458;-78
2023/12/18 10:46:59;;;;;;;;;23.75;19.25;;;;;11.83;45.47;103181.78;5034735;28;45391;-78
2023/12/18 10:49:28;;;;;;;;;19.75;17.75;;;;;11.86;45.75;103173.69;5034554;28;45510;-77
2023/12/18 10:51:56;;;;;;;;;22.00;18.50;;;;;11.68;45.63;103172.97;5034954;28;45365;-78
2023/12/18 10:54:24;;;;;;;;;16.25;14.50;;;;;11.74;45.60;103150.50;5034553;28;45469;-78
2023/12/18 10:56:51;;;;;;;;;18.50;14.75;;;;;11.88;45.51;103153.94;5034867;28;45470;-79
2023/12/18 10:59:19;;;;;;;;;20.25;18.00;;;;;12.07;44.89;103170.72;5035541;28;45537;-76
2023/12/18 11:01:45;;;;;;;;;20.00;16.25;;;;;12.06;45.37;103163.56;5017002;28;45699;-77
2023/12/18 11:04:12;;;;;;;;;15.25;13.00;;;;;12.14;45.00;103177.81;5034762;28;45226;-77
2023/12/18 11:06:40;;;;;;;;;20.25;17.75;;;;;12.16;44.96;103170.63;5034572;28;45237;-76
2023/12/18 11:09:05;;;;;;;;;17.00;17.00;;;;;11.51;45.59;103139.13;5035873;28;45407;-77
2023/12/18 11:11:33;;;;;;;;;18.25;13.75;;;;;11.91;45.69;103182.59;5042665;28;45324;-78
2023/12/18 11:14:26;;;;;;;;;17.75;16.75;;;;;11.74;45.92;103186.34;5033973;28;45344;-76
2023/12/18 11:17:19;;;;;;;;;20.25;17.25;;;;;11.41;46.62;103186.69;5034818;28;45297;-75
2023/12/18 11:20:00;;;;;;;;;17.00;17.00;;;;;11.30;46.51;103169.81;5038762;28;45661;-77
2023/12/18 11:22:40;;;;;;;;;18.25;18.25;;;;;11.57;46.39;103179.38;5036073;28;45282;-80
2023/12/18 11:25:08;;;;;;;;;25.25;21.25;;;;;11.38;45.79;103144.66;5016754;28;45430;-81
2023/12/18 11:27:34;;;;;;;;;17.75;16.50;;;;;11.58;46.35;103181.13;5036856;28;45584;-79
2023/12/18 11:30:00;;;;;;;;;20.50;19.00;;;;;11.43;45.78;103166.09;5016649;28;47884;-80
2023/12/18 11:32:45;;;;;;;;;21.00;16.75;;;;;11.41;46.22;103186.69;5034005;28;45458;-77
2023/12/18 11:35:12;;;;;;;;;22.25;18.25;;;;;11.31;45.96;103183.22;5033621;28;45372;-79
2023/12/18 11:37:44;;;;;;;;;23.25;17.75;;;;;11.32;45.51;103179.63;5034020;28;45516;-78
2023/12/18 11:40:39;;;;;;;;;24.75;21.00;;;;;11.19;45.49;103195.88;5012180;28;47341;-78
2023/12/18 11:43:07;;;;;;;;;34.50;30.75;;;;;11.21;45.89;103178.88;5022725;28;45469;-77
2023/12/18 11:45:34;;;;;;;;;20.25;19.50;;;;;11.48;45.70;103198.28;5032666;28;45478;-78
2023/12/18 11:48:04;;;;;;;;;20.50;17.50;;;;;11.42;44.67;103163.41;5031133;28;45379;-78
2023/12/18 11:50:36;;;;;;;;;23.75;18.00;;;;;11.21;44.83;103140.38;5037412;28;46273;-77
2023/12/18 11:53:05;;;;;;;;;15.00;15.00;;;;;11.47;44.90;103177.72;5037506;28;45323;-78
2023/12/18 11:55:36;;;;;;;;;16.25;16.25;;;;;11.41;44.66;103172.38;5037684;28;45441;-78
2023/12/18 11:58:03;;;;;;;;;24.75;20.00;;;;;11.37;44.95;103179.59;5037354;28;45504;-79
2023/12/18 12:00:30;;;;;;;;;16.75;14.00;;;;;11.41;44.99;103158.94;5036615;28;46149;-76
2023/12/18 12:02:56;;;;;;;;;13.25;11.00;;;;;11.07;45.38;103171.81;5037548;28;45326;-78
2023/12/18 12:05:22;;;;;;;;;12.00;12.00;;;;;10.76;45.57;103128.28;5036901;28;45536;-77
2023/12/18 12:07:51;;;;;;;;;13.00;12.00;;;;;10.98;45.81;103137.91;5036470;28;45569;-78
2023/12/18 12:10:16;;;;;;;;;12.50;11.75;;;;;10.99;45.93;103137.00;5042931;28;45522;-77
2023/12/18 12:12:42;;;;;;;;;16.75;15.25;;;;;11.05;45.61;103131.59;5037327;28;45482;-77
2023/12/18 12:15:08;;;;;;;;;16.00;11.00;;;;;10.88;46.13;103110.28;5044677;28;45421;-79
2023/12/18 12:17:34;;;;;;;;;12.25;12.25;;;;;11.23;45.49;103125.13;5036947;28;45355;-78
2023/12/18 12:19:59;;;;;;;;;10.25;8.25;;;;;11.16;45.30;103118.94;5036994;28;46204;-78
2023/12/18 12:22:24;;;;;;;;;8.75;8.75;;;;;11.30;45.61;103108.06;5036835;28;45431;-78
2023/12/18 12:24:50;;;;;;;;;12.00;11.50;;;;;11.50;45.21;103114.06;5036942;28;45309;-78
2023/12/18 12:27:16;;;;;;;;;13.50;10.00;;;;;11.74;45.08;103112.88;5037120;28;45253;-78
2023/12/18 12:29:41;;;;;;;;;20.25;14.00;;;;;11.70;44.97;103132.66;5036573;28;45448;-79
2023/12/18 12:32:07;;;;;;;;;12.75;9.25;;;;;11.41;45.51;103130.28;5036535;28;45559;-78
2023/12/18 12:34:34;;;;;;;;;13.50;11.75;;;;;11.60;45.25;103110.38;5036721;28;45438;-79
2023/12/18 12:37:03;;;;;;;;;12.00;10.00;;;;;11.77;45.04;103102.13;5036602;28;45488;-77
2023/12/18 12:39:29;;;;;;;;;12.75;12.75;;;;;11.74;44.83;103084.22;5036305;28;45313;-77
2023/12/18 12:41:54;;;;;;;;;16.25;11.00;;;;;11.71;45.15;103086.94;5035397;28;45545;-78
2023/12/18 12:44:20;;;;;;;;;14.75;10.75;;;;;11.74;44.87;103086.91;5035896;28;45858;-79
2023/12/18 12:46:45;;;;;;;;;10.00;9.00;;;;;11.46;46.15;103082.81;5037272;28;45443;-78
2023/12/18 12:49:11;;;;;;;;;9.50;9.50;;;;;11.59;45.55;103035.16;5036365;28;46060;-81
2023/12/18 12:51:40;;;;;;;;;13.25;11.25;;;;;12.02;44.67;103047.09;5018942;28;45778;-80
2023/12/18 12:54:08;;;;;;;;;8.00;7.25;;;;;12.21;44.69;103046.81;5037175;28;45517;-80
2023/12/18 12:56:34;;;;;;;;;13.50;13.50;;;;;12.05;44.50;103043.50;5020983;28;47295;-82
2023/12/18 12:59:00;;;;;;;;;11.50;9.25;;;;;12.05;44.62;103040.81;5036164;28;45315;-82
2023/12/18 13:01:27;;;;;;;;;13.00;11.00;;;;;12.14;44.47;103035.28;5036674;28;45283;-77
2023/12/18 13:03:53;;;;;;;;;10.00;10.00;;;;;12.30;44.36;103052.94;5037986;28;45632;-76
2023/12/18 13:06:20;;;;;;;;;12.00;9.25;;;;;12.26;44.19;103055.69;5034834;28;46411;-77
2023/12/18 13:08:45;;;;;;;;;17.50;13.75;;;;;12.01;45.15;103039.94;5036028;28;46043;-78
2023/12/18 13:11:11;;;;;;;;;12.25;10.25;;;;;12.21;44.91;103047.72;5044176;28;45583;-79
2023/12/18 13:13:36;;;;;;;;;14.75;14.00;;;;;12.13;44.78;103039.78;5036979;28;45521;-77
2023/12/18 13:16:01;;;;;;;;;10.00;8.25;;;;;12.12;45.17;103029.94;5036382;28;45558;-77
2023/12/18 13:18:27;;;;;;;;;12.00;9.00;;;;;12.25;45.01;103024.38;5032826;28;45991;-76
2023/12/18 13:20:52;;;;;;;;;11.50;7.25;;;;;12.40;44.75;103027.69;5033841;28;45471;-76
2023/12/18 13:23:18;;;;;;;;;10.25;9.50;;;;;12.50;44.70;103031.97;5048008;28;45465;-78
2023/12/18 13:25:44;;;;;;;;;9.00;9.00;;;;;12.52;44.63;103031.94;5035901;28;45474;-77
2023/12/18 13:28:09;;;;;;;;;9.00;6.25;;;;;12.35;44.86;103029.53;5036344;28;46117;-77
2023/12/18 13:30:35;;;;;;;;;9.75;9.75;;;;;12.48;44.83;103039.19;5017740;28;45631;-77
2023/12/18 13:33:02;;;;;;;;;10.25;10.25;;;;;12.40;44.88;103033.06;5038099;28;45473;-79
2023/12/18 13:35:27;;;;;;;;;10.75;8.25;;;;;12.39;45.10;103035.78;5048027;28;45608;-78
2023/12/18 13:37:53;;;;;;;;;13.00;13.00;;;;;12.42;45.18;103041.97;5035534;28;45823;-78
2023/12/18 13:40:18;;;;;;;;;10.50;10.50;;;;;12.18;45.43;103012.78;5035702;28;45348;-77
2023/12/18 13:42:43;;;;;;;;;11.25;11.00;;;;;12.34;45.50;103043.91;5017870;28;45346;-75
2023/12/18 13:45:09;;;;;;;;;7.25;5.50;;;;;12.01;46.18;103042.63;5035370;28;45387;-76
2023/12/18 13:47:34;;;;;;;;;14.75;9.50;;;;;12.26;46.04;103034.19;5035949;28;46082;-76
2023/12/18 13:50:00;;;;;;;;;9.00;8.50;;;;;12.29;45.70;103053.84;5035242;28;45584;-78
2023/12/18 13:52:25;;;;;;;;;12.25;11.00;;;;;12.08;45.83;103020.13;5035772;28;45379;-76
2023/12/18 13:54:51;;;;;;;;;9.75;9.00;;;;;12.41;45.57;103048.28;5035285;28;45608;-78
2023/12/18 13:57:17;;;;;;;;;12.00;10.25;;;;;12.65;44.96;103049.66;5035203;28;45378;-76
2023/12/18 13:59:43;;;;;;;;;10.25;10.25;;;;;12.64;45.33;103050.56;5017030;28;45340;-78
2023/12/18 14:02:09;;;;;;;;;10.50;10.00;;;;;12.43;45.68;103050.94;5035880;28;45338;-77
2023/12/18 14:04:34;;;;;;;;;9.25;9.00;;;;;12.40;45.64;103048.31;5035210;28;45338;-77
2023/12/18 14:07:00;;;;;;;;;14.75;13.50;;;;;12.35;45.63;103044.78;5033725;28;47770;-78
2023/12/18 14:09:25;;;;;;;;;9.00;9.00;;;;;12.50;45.46;103049.94;5035740;28;45391;-79
2023/12/18 14:11:52;;;;;;;;;11.25;10.50;;;;;12.60;45.35;103061.41;5042480;28;45970;-78
2023/12/18 14:14:17;;;;;;;;;6.50;6.50;;;;;12.68;45.64;103064.84;5035582;28;45430;-79
2023/12/18 14:16:43;;;;;;;;;13.00;11.25;;;;;12.44;45.67;103015.94;5025985;28;46167;-78
2023/12/18 14:19:08;;;;;;;;;9.75;9.75;;;;;12.55;46.03;103042.66;5047248;28;45354;-78
2023/12/18 14:21:34;;;;;;;;;13.75;12.00;;;;;12.62;45.67;103040.75;5045749;28;46872;-78
2023/12/18 14:23:59;;;;;;;;;12.75;10.00;;;;;12.71;45.63;103008.28;5039444;28;45401;-77
2023/12/18 14:26:25;;;;;;;;;15.75;9.00;;;;;12.73;45.50;103023.50;5035104;28;45354;-75
2023/12/18 14:28:51;;;;;;;;;10.00;10.00;;;;;12.73;45.41;103001.97;5034980;28;45572;-78
2023/12/18 14:31:16;;;;;;;;;13.00;10.00;;;;;12.92;45.32;103026.72;5034809;28;45349;-78
2023/12/18 14:33:42;;;;;;;;;9.50;9.00;;;;;12.74;45.26;103016.31;5034647;28;45490;-78
2023/12/18 14:36:07;;;;;;;;;13.75;10.00;;;;;12.76;45.62;103018.03;5035105;28;46357;-77
2023/12/18 14:38:33;;;;;;;;;10.00;10.00;;;;;12.76;45.71;103018.03;5033680;28;45430;-76
2023/12/18 14:40:59;;;;;;;;;8.00;6.25;;;;;12.67;45.91;103029.00;5043256;28;45514;-78
2023/12/18 14:43:25;;;;;;;;;16.00;14.00;;;;;12.49;46.01;103030.22;5017940;28;47059;-78
2023/12/18 14:45:50;;;;;;;;;7.25;7.25;;;;;12.60;45.88;103032.69;5034517;28;45925;-80
2023/12/18 14:48:16;;;;;;;;;10.00;10.00;;;;;12.41;46.01;103010.63;5034283;28;45435;-79
2023/12/18 14:50:41;;;;;;;;;7.75;7.75;;;;;12.55;46.23;103050.72;5034842;28;45159;-79
2023/12/18 14:53:07;;;;;;;;;10.00;10.00;;;;;12.63;46.12;103038.03;5034280;28;45162;-77
2023/12/18 14:55:33;;;;;;;;;9.00;9.00;;;;;12.72;45.93;103039.66;5034581;28;45450;-77
2023/12/18 14:58:02;;;;;;;;;13.00;8.50;;;;;12.68;46.51;103032.53;5033921;28;45241;-77
2023/12/18 15:00:31;;;;;;;;;14.00;13.50;;;;;12.60;46.41;103018.34;5034458;28;45384;-77
2023/12/18 15:02:56;;;;;;;;;12.50;11.25;;;;;12.56;46.78;103030.97;5034383;28;45589;-79
2023/12/18 15:05:23;;;;;;;;;9.00;8.75;;;;;12.66;46.32;103021.84;5016413;28;46995;-77
2023/12/18 15:07:49;;;;;;;;;8.75;8.75;;;;;12.66;46.32;102999.41;5034121;28;45316;-79
2023/12/18 15:10:14;;;;;;;;;11.75;10.00;;;;;12.52;46.89;103007.72;5041936;28;45505;-78
2023/12/18 15:12:39;;;;;;;;;11.00;11.00;;;;;12.65;46.71;102994.94;5034620;28;45333;-78
2023/12/18 15:15:05;;;;;;;;;11.25;11.25;;;;;12.71;46.91;103000.22;5034504;28;46033;-78
2023/12/18 15:17:31;;;;;;;;;11.50;11.50;;;;;12.74;46.70;103000.16;5036431;28;45304;-78
2023/12/18 15:19:56;;;;;;;;;12.50;10.50;;;;;12.64;46.99;102998.56;5037333;28;45245;-76
2023/12/18 15:22:21;;;;;;;;;13.50;10.75;;;;;12.49;47.36;102978.19;5033246;28;54662;-78
2023/12/18 15:24:47;;;;;;;;;14.25;13.00;;;;;12.64;47.10;102982.41;5034256;28;54825;-78
2023/12/18 15:27:12;;;;;;;;;10.25;10.25;;;;;12.69;46.80;102977.81;5034046;28;45453;-74
2023/12/18 15:29:37;;;;;;;;;11.50;9.75;;;;;12.79;46.47;102971.34;5037472;28;45385;-77
2023/12/18 15:32:03;;;;;;;;;14.50;13.25;;;;;12.84;46.62;102973.00;5025722;28;51023;-78
2023/12/18 15:34:28;;;;;;;;;14.50;14.50;;;;;12.79;46.31;102960.56;5040423;28;47668;-77
2023/12/18 15:36:54;;;;;;;;;14.25;12.25;;;;;12.82;46.48;102977.56;5037294;28;45170;-76
2023/12/18 15:39:20;;;;;;;;;14.75;14.00;;;;;12.66;46.20;102973.41;5039657;28;45862;-78
2023/12/18 15:41:46;;;;;;;;;18.00;13.00;;;;;12.81;45.96;102982.97;5037716;28;45459;-75
2023/12/18 15:44:11;;;;;;;;;12.75;12.75;;;;;12.75;46.26;102973.22;5041438;28;46074;-76
2023/12/18 15:46:36;;;;;;;;;14.00;14.00;;;;;12.74;46.12;102966.06;5039258;28;45501;-78
2023/12/18 15:49:02;;;;;;;;;15.75;14.25;;;;;12.87;45.73;102977.47;5036512;28;45500;-77
2023/12/18 15:51:27;;;;;;;;;21.25;17.00;;;;;12.87;45.84;102977.47;5035194;28;47775;-76
2023/12/18 15:53:54;;;;;;;;;18.00;12.25;;;;;12.87;45.92;102991.81;5016222;28;57197;-77
2023/12/18 15:56:19;;;;;;;;;20.25;18.00;;;;;12.92;45.95;102989.03;5034541;28;45489;-77
2023/12/18 15:58:45;;;;;;;;;15.00;15.00;;;;;12.88;46.01;102990.00;5017055;28;45499;-78
2023/12/18 16:01:11;;;;;;;;;13.00;13.00;;;;;12.79;46.04;102985.69;5034834;28;45436;-77
2023/12/18 16:03:37;;;;;;;;;16.75;14.75;;;;;12.61;46.34;102982.44;5042705;28;46157;-76
2023/12/18 16:06:03;;;;;;;;;17.75;17.75;;;;;12.70;46.66;102990.34;5034688;28;45313;-77
2023/12/18 16:08:28;;;;;;;;;18.50;15.25;;;;;12.39;47.33;102988.25;5033768;28;45499;-75
2023/12/18 16:10:53;;;;;;;;;18.00;18.00;;;;;12.32;47.29;102991.97;5040491;28;45313;-74
2023/12/18 16:13:19;;;;;;;;;23.75;21.00;;;;;12.41;47.12;102991.78;5015565;28;46032;-75
2023/12/18 16:15:44;;;;;;;;;18.25;16.50;;;;;12.40;47.22;102981.06;5033258;28;45416;-77
2023/12/18 16:18:09;;;;;;;;;22.50;18.75;;;;;12.40;47.24;102989.13;5033881;28;45453;-77
2023/12/18 16:20:35;;;;;;;;;22.75;17.25;;;;;12.28;48.03;102992.91;5045292;28;45329;-75
2023/12/18 16:23:00;;;;;;;;;19.50;18.25;;;;;12.34;47.41;102987.41;5032991;28;52172;-76
2023/12/18 16:25:25;;;;;;;;;22.00;17.75;;;;;12.29;47.99;102980.34;5014945;28;46279;-75
2023/12/18 16:27:51;;;;;;;;;25.75;21.25;;;;;12.26;47.78;102972.31;5034327;28;45306;-76
2023/12/18 16:30:16;;;;;;;;;20.50;17.50;;;;;12.29;47.69;102967.78;5033185;28;52943;-74
2023/12/18 16:32:42;;;;;;;;;24.50;21.00;;;;;12.33;48.12;102960.56;5033058;28;46057;-76
2023/12/18 16:35:08;;;;;;;;;21.25;19.50;;;;;12.38;47.46;102962.25;5034609;28;45370;-75
2023/12/18 16:37:34;;;;;;;;;20.00;19.25;;;;;12.43;48.06;102954.06;5043688;28;45485;-75
2023/12/18 16:39:59;;;;;;;;;23.00;19.25;;;;;12.51;47.73;102957.50;5038966;28;46452;-74